createdAt,value
2022-10-14T00:01:22.451Z,73.26
2022-10-14T00:03:51.417Z,73.49
2022-10-14T00:06:24.276Z,73.32
2022-10-14T00:08:52.574Z,73.61
2022-10-14T00:11:22.489Z,73.70
2022-10-14T00:13:51.065Z,73.67
2022-10-14T00:16:20.590Z,73.93
2022-10-14T00:18:48.816Z,74.02
2022-10-14T00:21:17.757Z,73.99
2022-10-14T00:23:47.575Z,74.06
2022-10-14T00:26:17.045Z,73.78
2022-10-14T00:28:45.152Z,73.72
2022-10-14T00:31:13.034Z,74.12
2022-10-14T00:33:40.854Z,73.80
2022-10-14T00:36:09.864Z,73.82
2022-10-14T00:38:37.720Z,73.72
2022-10-14T00:41:07.189Z,73.29
2022-10-14T00:43:54.401Z,73.57
2022-10-14T00:46:22.243Z,73.38
2022-10-14T00:48:56.505Z,73.50
2022-10-14T00:51:24.648Z,73.59
2022-10-14T00:53:52.682Z,74.06
2022-10-14T00:56:25.791Z,73.86
2022-10-14T00:58:54.632Z,73.78
2022-10-14T01:01:22.792Z,73.92
2022-10-14T01:03:51.871Z,73.97
2022-10-14T01:06:31.745Z,74.27
2022-10-14T01:09:04.533Z,73.98
2022-10-14T01:11:41.644Z,73.81
2022-10-14T01:14:21.679Z,73.88
2022-10-14T01:16:58.581Z,73.99
2022-10-14T01:19:55.262Z,73.69
2022-10-14T01:22:28.690Z,73.88
2022-10-14T01:25:09.664Z,74.10
2022-10-14T01:27:53.679Z,74.09
2022-10-14T01:30:24.110Z,74.09
2022-10-14T01:33:04.187Z,74.08
2022-10-14T01:35:55.461Z,74.18
2022-10-14T01:38:28.467Z,74.13
2022-10-14T01:41:05.746Z,73.95
2022-10-14T01:43:34.474Z,74.22
2022-10-14T01:46:06.944Z,74.12
2022-10-14T01:48:38.673Z,74.15
2022-10-14T01:51:12.864Z,74.17
2022-10-14T01:53:44.074Z,74.73
2022-10-14T01:56:13.286Z,74.33
2022-10-14T01:58:42.246Z,74.57
2022-10-14T02:01:12.547Z,74.50
2022-10-14T02:03:42.471Z,74.62
2022-10-14T02:06:15.771Z,74.56
2022-10-14T02:09:02.334Z,74.65
2022-10-14T02:11:38.857Z,74.96
2022-10-14T02:14:15.267Z,74.58
2022-10-14T02:16:52.854Z,74.65
2022-10-14T02:19:27.003Z,74.83
2022-10-14T02:22:01.473Z,75.07
2022-10-14T02:24:40.649Z,74.83
2022-10-14T02:27:13.037Z,74.95
2022-10-14T02:29:43.939Z,75.15
2022-10-14T02:32:15.456Z,75.19
2022-10-14T02:34:46.484Z,75.04
2022-10-14T02:37:16.731Z,75.16
2022-10-14T02:39:50.643Z,75.17
2022-10-14T02:42:18.824Z,74.93
2022-10-14T02:44:54.976Z,75.53
2022-10-14T02:47:25.280Z,75.48
2022-10-14T02:49:53.551Z,75.11
2022-10-14T02:52:22.187Z,75.15
2022-10-14T02:54:50.306Z,75.38
2022-10-14T02:57:18.239Z,75.30
2022-10-14T02:59:45.977Z,75.15
2022-10-14T03:02:13.812Z,75.35
2022-10-14T03:04:43.894Z,75.29
2022-10-14T03:07:12.387Z,75.59
2022-10-14T03:09:45.999Z,75.37
2022-10-14T03:12:13.919Z,75.58
2022-10-14T03:14:42.070Z,75.35
2022-10-14T03:17:13.339Z,75.44
2022-10-14T03:19:41.427Z,75.66
2022-10-14T03:22:10.879Z,75.46
2022-10-14T03:24:40.219Z,75.21
2022-10-14T03:27:26.809Z,75.19
2022-10-14T03:30:00.710Z,75.20
2022-10-14T03:32:28.923Z,75.71
2022-10-14T03:35:19.665Z,75.26
2022-10-14T03:37:53.141Z,75.43
2022-10-14T03:40:23.179Z,75.50
2022-10-14T03:42:52.073Z,75.26
2022-10-14T03:45:22.058Z,75.39
2022-10-14T03:47:49.962Z,75.39
2022-10-14T03:50:17.825Z,75.52
2022-10-14T03:52:55.406Z,75.43
2022-10-14T03:55:30.848Z,75.41
2022-10-14T03:57:59.179Z,75.33
2022-10-14T04:00:27.656Z,75.39
2022-10-14T04:03:09.019Z,75.44
2022-10-14T04:05:40.297Z,75.21
2022-10-14T04:08:17.502Z,75.45
2022-10-14T04:10:53.886Z,75.56
2022-10-14T04:13:23.070Z,75.27
2022-10-14T04:15:51.184Z,75.36
2022-10-14T04:18:25.875Z,75.13
2022-10-14T04:21:01.193Z,75.48
2022-10-14T04:23:30.965Z,75.41
2022-10-14T04:26:05.868Z,75.36
2022-10-14T04:28:34.946Z,75.12
2022-10-14T04:31:12.535Z,75.42
2022-10-14T04:33:53.092Z,75.57
2022-10-14T04:36:27.507Z,75.63
2022-10-14T04:38:59.036Z,75.41
2022-10-14T04:41:26.808Z,75.55
2022-10-14T04:43:57.084Z,75.09
2022-10-14T04:46:44.561Z,75.47
2022-10-14T04:49:12.817Z,75.53
2022-10-14T04:51:49.764Z,75.28
2022-10-14T04:54:28.492Z,75.36
2022-10-14T04:56:58.954Z,75.38
2022-10-14T04:59:27.008Z,75.42
2022-10-14T05:02:01.159Z,75.21
2022-10-14T05:04:37.711Z,75.79
2022-10-14T05:07:05.452Z,75.81
2022-10-14T05:09:34.560Z,75.85
2022-10-14T05:12:02.863Z,75.48
2022-10-14T05:14:46.557Z,75.32
2022-10-14T05:17:21.828Z,75.43
2022-10-14T05:19:49.657Z,75.53
2022-10-14T05:22:19.836Z,75.63
2022-10-14T05:24:49.395Z,75.45
2022-10-14T05:27:17.746Z,75.47
2022-10-14T05:29:48.771Z,75.40
2022-10-14T05:32:20.125Z,75.38
2022-10-14T05:34:50.793Z,75.39
2022-10-14T05:37:26.833Z,74.88
2022-10-14T05:39:57.525Z,75.49
2022-10-14T05:42:27.824Z,75.34
2022-10-14T05:44:58.540Z,75.55
2022-10-14T05:47:27.483Z,75.34
2022-10-14T05:50:03.013Z,75.00
2022-10-14T05:52:34.305Z,75.10
2022-10-14T05:55:09.508Z,75.21
2022-10-14T05:57:37.304Z,75.34
2022-10-14T06:00:07.820Z,74.99
2022-10-14T06:02:44.924Z,75.27
2022-10-14T06:05:17.097Z,75.33
2022-10-14T06:07:45.478Z,74.97
2022-10-14T06:10:14.622Z,75.16
2022-10-14T06:12:42.501Z,75.32
2022-10-14T06:15:11.084Z,74.97
2022-10-14T06:17:39.040Z,75.07
2022-10-14T06:20:07.910Z,75.02
2022-10-14T06:22:35.608Z,75.03
2022-10-14T06:25:04.657Z,75.22
2022-10-14T06:27:33.895Z,75.06
2022-10-14T06:30:01.661Z,74.69
2022-10-14T06:32:29.529Z,75.04
2022-10-14T06:34:57.352Z,75.11
2022-10-14T06:37:25.185Z,75.20
2022-10-14T06:39:52.955Z,74.94
2022-10-14T06:42:20.727Z,74.81
2022-10-14T06:44:49.924Z,74.73
2022-10-14T06:47:17.744Z,74.66
2022-10-14T06:49:45.516Z,74.64
2022-10-14T06:52:13.335Z,74.80
2022-10-14T06:54:43.608Z,74.88
2022-10-14T06:57:15.181Z,75.05
2022-10-14T06:59:42.937Z,74.97
2022-10-14T07:02:12.183Z,75.04
2022-10-14T07:04:40.042Z,74.45
2022-10-14T07:07:08.388Z,74.75
2022-10-14T07:09:36.212Z,74.96
2022-10-14T07:12:04.051Z,74.68
2022-10-14T07:14:31.804Z,74.73
2022-10-14T07:17:00.460Z,74.44
2022-10-14T07:19:29.604Z,74.89
2022-10-14T07:21:57.412Z,75.37
2022-10-14T07:24:25.500Z,75.29
2022-10-14T07:26:53.325Z,75.39
2022-10-14T07:29:21.368Z,75.69
2022-10-14T07:31:49.107Z,75.13
2022-10-14T07:34:16.864Z,75.16
2022-10-14T07:36:45.998Z,74.79
2022-10-14T07:39:13.989Z,75.04
2022-10-14T07:41:41.869Z,74.99
2022-10-14T07:44:10.163Z,74.97
2022-10-14T07:46:41.188Z,75.13
2022-10-14T07:49:12.023Z,74.94
2022-10-14T07:51:41.075Z,75.00
2022-10-14T07:54:14.277Z,74.95
2022-10-14T07:56:43.888Z,74.57
2022-10-14T07:59:12.129Z,74.08
2022-10-14T08:01:40.020Z,74.19
2022-10-14T08:04:08.056Z,74.02
2022-10-14T08:06:35.881Z,74.07
2022-10-14T08:09:05.124Z,74.40
2022-10-14T08:11:34.697Z,74.17
2022-10-14T08:14:02.737Z,73.90
2022-10-14T08:16:32.600Z,73.51
2022-10-14T08:19:02.783Z,73.74
2022-10-14T08:21:30.514Z,72.88
2022-10-14T08:23:58.570Z,72.55
2022-10-14T08:26:29.788Z,72.77
2022-10-14T08:29:01.148Z,71.94
2022-10-14T08:31:29.372Z,71.82
2022-10-14T08:33:57.187Z,71.99
2022-10-14T08:36:25.163Z,71.76
2022-10-14T08:38:53.808Z,71.59
2022-10-14T08:41:34.510Z,71.28
2022-10-14T08:44:14.297Z,71.48
2022-10-14T08:46:49.504Z,71.62
2022-10-14T08:49:26.013Z,71.40
2022-10-14T08:51:59.962Z,70.49
2022-10-14T08:54:35.816Z,70.12
2022-10-14T08:57:04.519Z,70.78
2022-10-14T08:59:38.175Z,70.56
2022-10-14T09:02:20.236Z,69.98
2022-10-14T09:04:48.186Z,69.76
2022-10-14T09:07:19.548Z,68.79
2022-10-14T09:09:51.691Z,68.53
2022-10-14T09:12:25.226Z,68.79
2022-10-14T09:15:05.121Z,68.30
2022-10-14T09:17:38.143Z,68.08
2022-10-14T09:20:17.460Z,67.59
2022-10-14T09:22:46.316Z,67.26
2022-10-14T09:25:16.463Z,67.74
2022-10-14T09:30:20.382Z,67.09
2022-10-14T09:32:51.926Z,67.19
2022-10-14T09:35:25.119Z,67.24
2022-10-14T09:37:53.564Z,67.49
2022-10-14T09:40:30.045Z,67.62
2022-10-14T09:43:01.348Z,67.38
2022-10-14T09:45:46.817Z,67.16
2022-10-14T09:48:18.753Z,66.04
2022-10-14T09:50:51.563Z,66.51
2022-10-14T09:53:27.952Z,66.48
2022-10-14T09:55:58.737Z,66.54
2022-10-14T09:58:32.730Z,66.23
2022-10-14T10:01:02.893Z,67.63
2022-10-14T10:03:33.975Z,66.39
2022-10-14T10:06:07.690Z,65.89
2022-10-14T10:08:37.673Z,65.25
2022-10-14T10:11:10.380Z,64.64
2022-10-14T10:13:41.603Z,63.01
2022-10-14T10:16:24.888Z,63.03
2022-10-14T10:18:55.161Z,63.26
2022-10-14T10:21:25.760Z,62.71
2022-10-14T10:23:58.809Z,61.48
2022-10-14T10:26:30.616Z,62.20
2022-10-14T10:28:59.500Z,62.87
2022-10-14T10:34:23.858Z,63.74
2022-10-14T10:36:57.449Z,62.49
2022-10-14T10:39:38.107Z,62.09
2022-10-14T10:42:12.786Z,63.52
2022-10-14T10:44:59.399Z,63.24
2022-10-14T10:47:41.080Z,63.69
2022-10-14T10:50:28.765Z,63.97
2022-10-14T10:53:22.811Z,64.00
2022-10-14T10:56:00.941Z,64.68
2022-10-14T10:58:41.549Z,64.53
2022-10-14T11:01:26.232Z,65.63
2022-10-14T11:04:15.970Z,65.77
2022-10-14T11:07:10.749Z,66.10
2022-10-14T11:10:02.143Z,65.91
2022-10-14T11:12:40.140Z,65.73
2022-10-14T11:15:31.391Z,66.15
2022-10-14T11:18:04.233Z,66.41
2022-10-14T11:20:43.697Z,66.00
2022-10-14T11:23:34.673Z,66.80
2022-10-14T11:26:08.272Z,66.20
2022-10-14T11:28:45.732Z,66.80
2022-10-14T11:31:26.905Z,66.24
2022-10-14T11:34:18.537Z,66.73
2022-10-14T11:37:01.389Z,67.81
2022-10-14T11:39:39.663Z,68.01
2022-10-14T11:42:26.893Z,66.94
2022-10-14T11:45:24.225Z,67.03
2022-10-14T11:48:05.457Z,67.43
2022-10-14T11:50:40.213Z,67.82
2022-10-14T11:53:15.217Z,68.32
2022-10-14T11:55:49.625Z,69.11
2022-10-14T11:58:23.803Z,69.26
2022-10-14T12:00:56.454Z,70.53
2022-10-14T12:03:37.481Z,70.53
2022-10-14T12:06:16.621Z,70.43
2022-10-14T12:08:51.490Z,71.24
2022-10-14T12:11:28.928Z,71.01
2022-10-14T12:14:06.513Z,71.06
2022-10-14T12:16:34.964Z,70.84
2022-10-14T12:19:02.969Z,71.42
2022-10-14T12:21:36.540Z,71.67
2022-10-14T12:24:11.871Z,71.75
2022-10-14T12:26:55.431Z,71.53
2022-10-14T12:29:26.037Z,71.18
2022-10-14T12:32:21.025Z,71.24
2022-10-14T12:34:50.860Z,71.22
2022-10-14T12:37:46.128Z,70.80
2022-10-14T12:40:31.989Z,71.31
2022-10-14T12:43:04.595Z,71.06
2022-10-14T12:45:35.770Z,71.38
2022-10-14T12:48:08.741Z,71.12
2022-10-14T12:50:38.651Z,71.59
2022-10-14T12:53:09.272Z,71.89
2022-10-14T12:55:49.438Z,71.25
2022-10-14T12:58:25.004Z,71.34
2022-10-14T13:01:00.098Z,72.15
2022-10-14T13:03:31.993Z,71.81
2022-10-14T13:06:27.736Z,71.75
2022-10-14T13:09:33.351Z,71.30
2022-10-14T13:12:43.868Z,71.03
2022-10-14T13:15:34.160Z,71.86
2022-10-14T13:18:35.232Z,71.24
2022-10-14T13:21:03.501Z,71.67
2022-10-14T13:23:37.926Z,71.49
2022-10-14T13:26:20.405Z,71.67
2022-10-14T13:29:00.282Z,71.52
2022-10-14T13:31:38.874Z,71.17
2022-10-14T13:34:18.993Z,70.49
2022-10-14T13:37:01.899Z,71.30
2022-10-14T13:39:33.422Z,71.09
2022-10-14T13:42:02.102Z,71.28
2022-10-14T13:44:31.403Z,71.23
2022-10-14T13:47:02.556Z,71.60
2022-10-14T13:49:37.491Z,71.39
2022-10-14T13:52:10.635Z,70.59
2022-10-14T13:54:38.465Z,71.03
2022-10-14T14:02:53.861Z,71.29
2022-10-14T14:05:27.482Z,71.09
2022-10-14T14:11:14.887Z,71.69
2022-10-14T14:13:53.408Z,71.81
2022-10-14T14:16:27.208Z,71.69
2022-10-14T14:19:04.362Z,72.33
2022-10-14T14:21:36.097Z,71.86
2022-10-14T14:24:16.200Z,72.57
2022-10-14T14:26:49.493Z,72.50
2022-10-14T14:29:23.431Z,72.39
2022-10-14T14:32:08.746Z,71.94
2022-10-14T14:34:39.734Z,72.50
2022-10-14T14:37:40.279Z,72.05
2022-10-14T14:40:07.698Z,72.26
2022-10-14T14:42:37.678Z,72.39
2022-10-14T14:45:12.536Z,72.76
2022-10-14T14:47:42.645Z,72.54
2022-10-14T14:50:31.120Z,72.86
2022-10-14T14:53:03.359Z,72.70
2022-10-14T14:55:36.857Z,72.72
2022-10-14T14:58:07.773Z,72.96
2022-10-14T15:00:35.711Z,72.95
2022-10-14T15:03:05.180Z,72.59
2022-10-14T15:05:33.172Z,72.97
2022-10-14T15:08:01.079Z,72.90
2022-10-14T15:10:31.567Z,73.01
2022-10-14T15:13:02.671Z,72.74
2022-10-14T15:15:35.037Z,72.54
2022-10-14T15:18:24.761Z,73.03
2022-10-14T15:20:53.010Z,72.60
2022-10-14T15:23:41.878Z,72.57
2022-10-14T15:26:24.557Z,72.47
2022-10-14T15:32:06.024Z,72.57
2022-10-14T15:34:37.769Z,72.96
2022-10-14T15:37:06.134Z,72.88
2022-10-14T15:39:34.185Z,72.84
2022-10-14T15:42:02.284Z,73.18
2022-10-14T15:44:32.811Z,72.82
2022-10-14T15:47:18.233Z,73.10
2022-10-14T15:49:48.278Z,73.14
2022-10-14T15:52:20.397Z,73.67
2022-10-14T15:54:51.096Z,74.08
2022-10-14T15:57:18.981Z,73.92
2022-10-14T15:59:52.012Z,73.94
2022-10-14T16:02:25.988Z,74.10
2022-10-14T16:07:43.799Z,74.27
2022-10-14T16:10:14.710Z,74.48
2022-10-14T16:12:42.776Z,74.28
2022-10-14T16:15:24.230Z,74.44
2022-10-14T16:17:53.188Z,74.23
2022-10-14T16:20:23.403Z,74.33
2022-10-14T16:22:51.828Z,74.41
2022-10-14T16:25:26.246Z,74.84
2022-10-14T16:27:54.157Z,74.71
2022-10-14T16:30:22.868Z,75.13
2022-10-14T16:32:51.322Z,74.67
2022-10-14T16:35:19.284Z,74.41
2022-10-14T16:37:48.865Z,74.81
2022-10-14T16:40:17.092Z,74.97
2022-10-14T16:42:45.392Z,75.05
2022-10-14T16:45:14.233Z,75.19
2022-10-14T16:47:42.155Z,75.63
2022-10-14T16:50:11.615Z,75.43
2022-10-14T16:53:08.599Z,75.08
2022-10-14T16:55:39.262Z,75.63
2022-10-14T16:58:07.133Z,75.29
2022-10-14T17:00:36.211Z,75.27
2022-10-14T17:03:08.950Z,75.51
2022-10-14T17:05:36.906Z,75.84
2022-10-14T17:08:08.297Z,75.49
2022-10-14T17:10:39.180Z,75.79
2022-10-14T17:13:07.167Z,75.73
2022-10-14T17:15:39.299Z,75.85
2022-10-14T17:18:09.939Z,75.56
2022-10-14T17:20:40.224Z,75.75
2022-10-14T17:23:10.335Z,76.30
2022-10-14T17:25:46.183Z,76.10
2022-10-14T17:28:14.081Z,76.07
2022-10-14T17:30:41.917Z,76.45
2022-10-14T17:33:09.785Z,76.05
2022-10-14T17:35:37.678Z,76.03
2022-10-14T17:38:07.413Z,75.81
2022-10-14T17:40:35.481Z,76.14
2022-10-14T17:43:05.149Z,76.39
2022-10-14T17:45:33.096Z,76.35
2022-10-14T17:48:01.037Z,76.36
2022-10-14T17:50:30.144Z,76.04
2022-10-14T17:52:59.013Z,76.26
2022-10-14T17:55:28.436Z,75.97
2022-10-14T17:57:56.606Z,76.13
2022-10-14T18:00:26.055Z,76.60
2022-10-14T18:02:54.215Z,76.29
2022-10-14T18:05:22.344Z,76.16
2022-10-14T18:07:50.287Z,76.46
2022-10-14T18:10:18.326Z,76.52
2022-10-14T18:12:46.297Z,76.10
2022-10-14T18:15:14.271Z,76.22
2022-10-14T18:17:43.731Z,76.24
2022-10-14T18:20:11.864Z,76.37
2022-10-14T18:22:40.652Z,76.51
2022-10-14T18:25:09.266Z,76.75
2022-10-14T18:27:37.231Z,76.21
2022-10-14T18:30:06.137Z,76.56
2022-10-14T18:32:34.222Z,76.60
2022-10-14T18:35:05.439Z,76.41
2022-10-14T18:37:33.407Z,76.37
2022-10-14T18:40:01.309Z,76.50
2022-10-14T18:42:29.605Z,76.13
2022-10-14T18:44:59.079Z,75.89
2022-10-14T18:47:27.036Z,76.42
2022-10-14T18:49:55.012Z,76.12
2022-10-14T18:52:25.537Z,75.92
2022-10-14T18:54:53.850Z,76.22
2022-10-14T18:57:23.858Z,76.01
2022-10-14T18:59:52.570Z,76.12
2022-10-14T19:02:21.680Z,76.18
2022-10-14T19:04:50.090Z,75.81
2022-10-14T19:07:18.697Z,75.73
2022-10-14T19:09:48.761Z,75.78
2022-10-14T19:12:33.949Z,75.79
2022-10-14T19:15:04.403Z,75.69
2022-10-14T19:17:33.881Z,75.41
2022-10-14T19:20:01.874Z,75.78
2022-10-14T19:22:29.798Z,75.90
2022-10-14T19:24:59.132Z,75.75
2022-10-14T19:27:27.466Z,76.11
2022-10-14T19:29:55.531Z,76.04
2022-10-14T19:32:24.859Z,76.17
2022-10-14T19:34:52.972Z,75.99
2022-10-14T19:37:21.913Z,76.28
2022-10-14T19:39:53.349Z,76.32
2022-10-14T19:42:27.151Z,76.24
2022-10-14T19:45:05.890Z,76.41
2022-10-14T19:47:36.598Z,76.74
2022-10-14T19:50:19.553Z,76.53
2022-10-14T19:52:48.191Z,76.17
2022-10-14T19:55:16.543Z,76.41
2022-10-14T19:57:46.409Z,76.24
2022-10-14T20:00:15.571Z,76.19
2022-10-14T20:02:46.594Z,76.30
2022-10-14T20:05:17.533Z,76.26
2022-10-14T20:07:46.288Z,76.10
2022-10-14T20:10:15.335Z,76.32
2022-10-14T20:12:43.916Z,76.21
2022-10-14T20:15:13.870Z,76.38
2022-10-14T20:17:42.811Z,76.46
2022-10-14T20:20:13.173Z,76.84
2022-10-14T20:22:41.454Z,76.53
2022-10-14T20:25:11.086Z,76.27
2022-10-14T20:27:39.809Z,76.56
2022-10-14T20:30:09.178Z,76.48
2022-10-14T20:32:39.062Z,75.77
2022-10-14T20:35:10.471Z,76.34
2022-10-14T20:37:42.620Z,76.35
2022-10-14T20:40:11.889Z,76.30
2022-10-14T20:42:40.064Z,76.40
2022-10-14T20:45:09.037Z,76.60
2022-10-14T20:47:38.722Z,76.23
2022-10-14T20:50:07.882Z,76.54
2022-10-14T20:52:35.755Z,76.13
2022-10-14T20:55:04.436Z,75.85
2022-10-14T20:57:32.665Z,75.70
2022-10-14T21:00:00.999Z,75.78
2022-10-14T21:02:29.351Z,75.48
2022-10-14T21:05:00.797Z,75.66
2022-10-14T21:07:29.174Z,75.37
2022-10-14T21:09:57.266Z,75.20
2022-10-14T21:12:26.336Z,75.32
2022-10-14T21:14:54.563Z,75.17
2022-10-14T21:17:23.071Z,75.31
2022-10-14T21:19:51.441Z,75.14
2022-10-14T21:22:21.504Z,75.08
2022-10-14T21:24:49.965Z,75.48
2022-10-14T21:27:18.028Z,75.41
2022-10-14T21:29:46.977Z,75.15
2022-10-14T21:32:15.818Z,75.69
2022-10-14T21:34:44.564Z,75.05
2022-10-14T21:37:14.549Z,75.32
2022-10-14T21:39:44.728Z,75.53
2022-10-14T21:42:14.512Z,75.16
2022-10-14T21:44:42.581Z,74.65
2022-10-14T21:47:10.456Z,75.24
2022-10-14T21:49:38.580Z,75.30
2022-10-14T21:52:08.393Z,75.22
2022-10-14T21:54:36.941Z,75.01
2022-10-14T21:57:07.053Z,75.22
2022-10-14T21:59:35.850Z,74.92
2022-10-14T22:02:05.237Z,74.95
2022-10-14T22:04:35.989Z,74.64
2022-10-14T22:09:59.727Z,74.70
2022-10-14T22:12:30.581Z,75.37
2022-10-14T22:14:58.927Z,75.01
2022-10-14T22:17:27.270Z,74.76
2022-10-14T22:20:00.492Z,74.66
2022-10-14T22:22:31.358Z,75.14
2022-10-14T22:25:01.409Z,75.66
2022-10-14T22:27:31.584Z,75.58
2022-10-14T22:30:02.524Z,75.53
2022-10-14T22:32:31.348Z,75.25
2022-10-14T22:37:46.495Z,75.06
2022-10-14T22:40:15.101Z,75.29
2022-10-14T22:42:49.070Z,75.59
2022-10-14T22:45:20.014Z,75.19
2022-10-14T22:47:48.155Z,75.35
2022-10-14T22:50:16.857Z,75.69
2022-10-14T22:52:45.296Z,75.05
2022-10-14T22:55:15.811Z,75.05
2022-10-14T22:57:45.450Z,74.94
2022-10-14T23:00:16.619Z,75.39
2022-10-14T23:02:47.071Z,74.98
2022-10-14T23:05:15.350Z,75.02
2022-10-14T23:07:43.869Z,75.29
2022-10-14T23:10:12.084Z,75.22
2022-10-14T23:12:40.655Z,75.24
2022-10-14T23:15:11.486Z,75.32
2022-10-14T23:17:40.450Z,75.56
2022-10-14T23:20:10.685Z,75.45
2022-10-14T23:22:38.960Z,75.45
2022-10-14T23:25:08.564Z,75.32
2022-10-14T23:27:36.836Z,75.38
2022-10-14T23:30:06.193Z,75.57
2022-10-14T23:32:36.166Z,75.29
2022-10-14T23:35:05.130Z,75.16
2022-10-14T23:37:33.558Z,75.18
2022-10-14T23:40:02.299Z,75.15
2022-10-14T23:42:30.892Z,74.98
2022-10-14T23:44:59.851Z,75.07
2022-10-14T23:47:29.453Z,75.25
2022-10-14T23:49:59.738Z,75.51
2022-10-14T23:52:28.530Z,75.45
2022-10-14T23:57:25.758Z,74.83
2022-10-14T23:59:55.827Z,75.11
